sensor_id;sensor_type;location;lat;lon;timestamp;P1;durP1;ratioP1;P2;durP2;ratioP2
34836;SDS011;21053;50.848;4.652;2024-02-15T00:01:48;63.17;;;58.25;;
34836;SDS011;21053;50.848;4.652;2024-02-15T00:06:45;62.72;;;57.45;;
34836;SDS011;21053;50.848;4.652;2024-02-15T00:09:11;64.65;;;59.67;;
34836;SDS011;21053;50.848;4.652;2024-02-15T00:11:37;69.25;;;63.83;;
34836;SDS011;21053;50.848;4.652;2024-02-15T00:14:04;75.47;;;69.07;;
34836;SDS011;21053;50.848;4.652;2024-02-15T00:16:31;70.88;;;65.35;;
34836;SDS011;21053;50.848;4.652;2024-02-15T00:18:57;63.15;;;58.22;;
34836;SDS011;21053;50.848;4.652;2024-02-15T00:21:22;72.78;;;65.35;;
34836;SDS011;21053;50.848;4.652;2024-02-15T00:23:48;58.45;;;54.00;;
34836;SDS011;21053;50.848;4.652;2024-02-15T00:26:15;61.10;;;56.40;;
34836;SDS011;21053;50.848;4.652;2024-02-15T00:28:42;67.03;;;61.55;;
34836;SDS011;21053;50.848;4.652;2024-02-15T00:31:08;57.80;;;53.38;;
34836;SDS011;21053;50.848;4.652;2024-02-15T00:33:36;65.40;;;59.85;;
34836;SDS011;21053;50.848;4.652;2024-02-15T00:36:02;59.33;;;53.78;;
34836;SDS011;21053;50.848;4.652;2024-02-15T00:38:31;63.20;;;58.33;;
34836;SDS011;21053;50.848;4.652;2024-02-15T00:40:57;60.13;;;55.35;;
34836;SDS011;21053;50.848;4.652;2024-02-15T00:43:24;60.65;;;55.08;;
34836;SDS011;21053;50.848;4.652;2024-02-15T00:45:52;56.85;;;51.97;;
34836;SDS011;21053;50.848;4.652;2024-02-15T00:48:18;61.50;;;56.53;;
34836;SDS011;21053;50.848;4.652;2024-02-15T00:50:44;61.47;;;56.58;;
34836;SDS011;21053;50.848;4.652;2024-02-15T00:53:10;63.40;;;58.42;;
34836;SDS011;21053;50.848;4.652;2024-02-15T00:55:36;58.85;;;54.35;;
34836;SDS011;21053;50.848;4.652;2024-02-15T00:58:02;61.80;;;56.53;;
34836;SDS011;21053;50.848;4.652;2024-02-15T01:00:28;59.38;;;54.85;;
34836;SDS011;21053;50.848;4.652;2024-02-15T01:02:55;58.00;;;53.63;;
34836;SDS011;21053;50.848;4.652;2024-02-15T01:05:23;65.88;;;60.70;;
34836;SDS011;21053;50.848;4.652;2024-02-15T01:07:49;54.63;;;50.45;;
34836;SDS011;21053;50.848;4.652;2024-02-15T01:10:17;67.93;;;62.70;;
34836;SDS011;21053;50.848;4.652;2024-02-15T01:12:43;60.83;;;56.08;;
34836;SDS011;21053;50.848;4.652;2024-02-15T01:15:09;58.15;;;53.05;;
34836;SDS011;21053;50.848;4.652;2024-02-15T01:17:35;68.60;;;63.25;;
34836;SDS011;21053;50.848;4.652;2024-02-15T01:20:00;59.30;;;53.88;;
34836;SDS011;21053;50.848;4.652;2024-02-15T01:22:26;60.70;;;56.08;;
34836;SDS011;21053;50.848;4.652;2024-02-15T01:24:52;54.30;;;50.10;;
34836;SDS011;21053;50.848;4.652;2024-02-15T01:27:18;54.33;;;50.17;;
34836;SDS011;21053;50.848;4.652;2024-02-15T01:29:47;62.17;;;57.10;;
34836;SDS011;21053;50.848;4.652;2024-02-15T01:32:14;60.58;;;55.10;;
34836;SDS011;21053;50.848;4.652;2024-02-15T01:34:40;64.50;;;59.20;;
34836;SDS011;21053;50.848;4.652;2024-02-15T01:37:05;66.70;;;61.10;;
34836;SDS011;21053;50.848;4.652;2024-02-15T01:42:03;64.85;;;59.45;;
34836;SDS011;21053;50.848;4.652;2024-02-15T01:44:31;73.05;;;66.85;;
34836;SDS011;21053;50.848;4.652;2024-02-15T01:47:00;59.70;;;55.10;;
34836;SDS011;21053;50.848;4.652;2024-02-15T01:49:26;71.90;;;66.25;;
34836;SDS011;21053;50.848;4.652;2024-02-15T01:51:56;64.25;;;59.33;;
34836;SDS011;21053;50.848;4.652;2024-02-15T01:54:22;73.22;;;66.43;;
34836;SDS011;21053;50.848;4.652;2024-02-15T01:56:49;74.88;;;67.93;;
34836;SDS011;21053;50.848;4.652;2024-02-15T01:59:17;67.60;;;62.17;;
34836;SDS011;21053;50.848;4.652;2024-02-15T02:01:45;62.55;;;57.67;;
34836;SDS011;21053;50.848;4.652;2024-02-15T02:04:14;64.03;;;58.78;;
34836;SDS011;21053;50.848;4.652;2024-02-15T02:09:12;64.55;;;59.55;;
34836;SDS011;21053;50.848;4.652;2024-02-15T02:14:11;64.55;;;59.58;;
34836;SDS011;21053;50.848;4.652;2024-02-15T02:16:39;69.47;;;63.70;;
34836;SDS011;21053;50.848;4.652;2024-02-15T02:19:05;70.57;;;64.85;;
34836;SDS011;21053;50.848;4.652;2024-02-15T02:21:34;63.58;;;58.70;;
34836;SDS011;21053;50.848;4.652;2024-02-15T02:24:02;62.85;;;58.08;;
34836;SDS011;21053;50.848;4.652;2024-02-15T02:26:37;70.70;;;64.90;;
34836;SDS011;21053;50.848;4.652;2024-02-15T02:29:04;62.15;;;57.30;;
34836;SDS011;21053;50.848;4.652;2024-02-15T02:31:34;63.28;;;58.45;;
34836;SDS011;21053;50.848;4.652;2024-02-15T02:36:29;62.13;;;57.30;;
34836;SDS011;21053;50.848;4.652;2024-02-15T02:38:56;62.55;;;57.47;;
34836;SDS011;21053;50.848;4.652;2024-02-15T02:41:27;67.15;;;61.92;;
34836;SDS011;21053;50.848;4.652;2024-02-15T02:43:54;65.28;;;60.20;;
34836;SDS011;21053;50.848;4.652;2024-02-15T02:46:23;66.22;;;61.15;;
34836;SDS011;21053;50.848;4.652;2024-02-15T02:48:51;70.68;;;65.30;;
34836;SDS011;21053;50.848;4.652;2024-02-15T02:51:17;61.08;;;56.22;;
34836;SDS011;21053;50.848;4.652;2024-02-15T02:53:43;64.30;;;59.08;;
34836;SDS011;21053;50.848;4.652;2024-02-15T02:56:09;61.00;;;56.35;;
34836;SDS011;21053;50.848;4.652;2024-02-15T02:58:35;62.92;;;57.72;;
34836;SDS011;21053;50.848;4.652;2024-02-15T03:01:01;66.15;;;60.95;;
34836;SDS011;21053;50.848;4.652;2024-02-15T03:03:28;62.75;;;57.88;;
34836;SDS011;21053;50.848;4.652;2024-02-15T03:05:57;55.40;;;51.17;;
34836;SDS011;21053;50.848;4.652;2024-02-15T03:08:24;66.25;;;61.10;;
34836;SDS011;21053;50.848;4.652;2024-02-15T03:10:51;73.63;;;67.63;;
34836;SDS011;21053;50.848;4.652;2024-02-15T03:15:45;72.85;;;67.20;;
34836;SDS011;21053;50.848;4.652;2024-02-15T03:18:14;68.03;;;62.28;;
34836;SDS011;21053;50.848;4.652;2024-02-15T03:20:41;66.63;;;61.42;;
34836;SDS011;21053;50.848;4.652;2024-02-15T03:23:07;67.57;;;62.08;;
34836;SDS011;21053;50.848;4.652;2024-02-15T03:25:32;68.13;;;62.25;;
34836;SDS011;21053;50.848;4.652;2024-02-15T03:28:00;63.65;;;58.72;;
34836;SDS011;21053;50.848;4.652;2024-02-15T03:30:31;57.45;;;52.55;;
34836;SDS011;21053;50.848;4.652;2024-02-15T03:32:58;70.22;;;64.45;;
34836;SDS011;21053;50.848;4.652;2024-02-15T03:35:25;60.88;;;56.22;;
34836;SDS011;21053;50.848;4.652;2024-02-15T03:37:54;58.33;;;53.78;;
34836;SDS011;21053;50.848;4.652;2024-02-15T03:40:22;63.97;;;59.05;;
34836;SDS011;21053;50.848;4.652;2024-02-15T03:42:49;57.47;;;52.92;;
34836;SDS011;21053;50.848;4.652;2024-02-15T03:45:17;61.72;;;56.97;;
34836;SDS011;21053;50.848;4.652;2024-02-15T03:47:44;64.78;;;59.67;;
34836;SDS011;21053;50.848;4.652;2024-02-15T03:50:12;59.15;;;54.20;;
34836;SDS011;21053;50.848;4.652;2024-02-15T03:52:39;61.00;;;56.30;;
34836;SDS011;21053;50.848;4.652;2024-02-15T03:55:12;66.40;;;59.78;;
34836;SDS011;21053;50.848;4.652;2024-02-15T03:57:38;77.32;;;71.43;;
34836;SDS011;21053;50.848;4.652;2024-02-15T04:00:13;86.57;;;79.90;;
34836;SDS011;21053;50.848;4.652;2024-02-15T04:02:46;84.07;;;77.15;;
34836;SDS011;21053;50.848;4.652;2024-02-15T04:05:13;82.05;;;75.70;;
34836;SDS011;21053;50.848;4.652;2024-02-15T04:07:40;74.65;;;68.93;;
34836;SDS011;21053;50.848;4.652;2024-02-15T04:10:06;85.90;;;79.20;;
34836;SDS011;21053;50.848;4.652;2024-02-15T04:12:35;75.05;;;69.28;;
34836;SDS011;21053;50.848;4.652;2024-02-15T04:15:03;82.53;;;76.22;;
34836;SDS011;21053;50.848;4.652;2024-02-15T04:20:05;90.50;;;82.78;;
34836;SDS011;21053;50.848;4.652;2024-02-15T04:22:34;78.00;;;71.40;;
34836;SDS011;21053;50.848;4.652;2024-02-15T04:25:06;80.53;;;74.35;;
34836;SDS011;21053;50.848;4.652;2024-02-15T04:27:35;91.50;;;84.35;;
34836;SDS011;21053;50.848;4.652;2024-02-15T04:30:04;81.03;;;74.53;;
34836;SDS011;21053;50.848;4.652;2024-02-15T04:32:34;84.63;;;78.07;;
34836;SDS011;21053;50.848;4.652;2024-02-15T04:35:02;84.45;;;77.72;;
34836;SDS011;21053;50.848;4.652;2024-02-15T04:37:29;77.45;;;71.45;;
34836;SDS011;21053;50.848;4.652;2024-02-15T04:39:57;78.28;;;72.25;;
34836;SDS011;21053;50.848;4.652;2024-02-15T04:42:23;74.18;;;68.32;;
34836;SDS011;21053;50.848;4.652;2024-02-15T04:44:51;84.03;;;77.55;;
34836;SDS011;21053;50.848;4.652;2024-02-15T04:49:50;87.80;;;80.97;;
34836;SDS011;21053;50.848;4.652;2024-02-15T04:52:17;92.80;;;85.18;;
34836;SDS011;21053;50.848;4.652;2024-02-15T04:54:44;96.10;;;88.75;;
34836;SDS011;21053;50.848;4.652;2024-02-15T04:57:11;102.72;;;94.78;;
34836;SDS011;21053;50.848;4.652;2024-02-15T04:59:40;93.88;;;86.65;;
34836;SDS011;21053;50.848;4.652;2024-02-15T05:04:38;93.53;;;86.25;;
34836;SDS011;21053;50.848;4.652;2024-02-15T05:07:07;89.35;;;81.72;;
34836;SDS011;21053;50.848;4.652;2024-02-15T05:09:34;111.00;;;98.07;;
34836;SDS011;21053;50.848;4.652;2024-02-15T05:14:29;97.72;;;88.70;;
34836;SDS011;21053;50.848;4.652;2024-02-15T05:16:58;92.75;;;85.53;;
34836;SDS011;21053;50.848;4.652;2024-02-15T05:19:25;104.45;;;96.20;;
34836;SDS011;21053;50.848;4.652;2024-02-15T05:21:53;95.63;;;88.10;;
34836;SDS011;21053;50.848;4.652;2024-02-15T05:24:20;112.03;;;102.90;;
34836;SDS011;21053;50.848;4.652;2024-02-15T05:26:46;105.85;;;97.03;;
34836;SDS011;21053;50.848;4.652;2024-02-15T05:29:12;89.32;;;82.43;;
34836;SDS011;21053;50.848;4.652;2024-02-15T05:31:39;97.05;;;89.38;;
34836;SDS011;21053;50.848;4.652;2024-02-15T05:34:05;96.40;;;88.72;;
34836;SDS011;21053;50.848;4.652;2024-02-15T05:36:37;98.50;;;90.68;;
34836;SDS011;21053;50.848;4.652;2024-02-15T05:39:03;103.88;;;95.75;;
34836;SDS011;21053;50.848;4.652;2024-02-15T05:41:32;86.38;;;79.32;;
34836;SDS011;21053;50.848;4.652;2024-02-15T05:43:59;93.22;;;86.05;;
34836;SDS011;21053;50.848;4.652;2024-02-15T05:46:31;89.72;;;82.70;;
34836;SDS011;21053;50.848;4.652;2024-02-15T05:51:29;93.45;;;85.28;;
34836;SDS011;21053;50.848;4.652;2024-02-15T05:53:56;92.30;;;85.15;;
34836;SDS011;21053;50.848;4.652;2024-02-15T05:56:24;95.40;;;88.00;;
34836;SDS011;21053;50.848;4.652;2024-02-15T05:58:51;99.82;;;91.53;;
34836;SDS011;21053;50.848;4.652;2024-02-15T06:01:19;92.68;;;85.47;;
34836;SDS011;21053;50.848;4.652;2024-02-15T06:03:45;95.35;;;87.50;;
34836;SDS011;21053;50.848;4.652;2024-02-15T06:08:41;97.20;;;89.47;;
34836;SDS011;21053;50.848;4.652;2024-02-15T06:11:11;86.53;;;79.82;;
34836;SDS011;21053;50.848;4.652;2024-02-15T06:16:06;91.00;;;84.00;;
34836;SDS011;21053;50.848;4.652;2024-02-15T06:18:34;82.45;;;76.05;;
34836;SDS011;21053;50.848;4.652;2024-02-15T06:21:01;91.05;;;84.00;;
34836;SDS011;21053;50.848;4.652;2024-02-15T06:23:27;85.13;;;77.63;;
34836;SDS011;21053;50.848;4.652;2024-02-15T06:25:55;83.35;;;75.55;;
34836;SDS011;21053;50.848;4.652;2024-02-15T06:28:23;85.45;;;78.72;;
34836;SDS011;21053;50.848;4.652;2024-02-15T06:31:08;86.25;;;79.60;;
34836;SDS011;21053;50.848;4.652;2024-02-15T06:33:52;88.63;;;81.45;;
34836;SDS011;21053;50.848;4.652;2024-02-15T06:36:46;86.28;;;79.53;;
34836;SDS011;21053;50.848;4.652;2024-02-15T06:39:31;81.53;;;75.10;;
34836;SDS011;21053;50.848;4.652;2024-02-15T06:42:10;80.55;;;74.35;;
34836;SDS011;21053;50.848;4.652;2024-02-15T06:44:41;83.57;;;77.13;;
34836;SDS011;21053;50.848;4.652;2024-02-15T06:47:08;75.85;;;70.03;;
34836;SDS011;21053;50.848;4.652;2024-02-15T06:49:36;77.63;;;71.38;;
34836;SDS011;21053;50.848;4.652;2024-02-15T06:52:05;79.53;;;73.32;;
34836;SDS011;21053;50.848;4.652;2024-02-15T06:54:32;89.22;;;82.00;;
34836;SDS011;21053;50.848;4.652;2024-02-15T06:57:01;75.47;;;69.65;;
34836;SDS011;21053;50.848;4.652;2024-02-15T06:59:27;68.90;;;63.58;;
34836;SDS011;21053;50.848;4.652;2024-02-15T07:01:53;71.43;;;65.88;;
34836;SDS011;21053;50.848;4.652;2024-02-15T07:04:21;77.47;;;71.43;;
34836;SDS011;21053;50.848;4.652;2024-02-15T07:06:46;71.18;;;65.60;;
34836;SDS011;21053;50.848;4.652;2024-02-15T07:09:14;73.32;;;67.70;;
34836;SDS011;21053;50.848;4.652;2024-02-15T07:11:40;74.72;;;68.90;;
34836;SDS011;21053;50.848;4.652;2024-02-15T07:14:07;74.90;;;69.13;;
34836;SDS011;21053;50.848;4.652;2024-02-15T07:16:34;64.53;;;59.50;;
34836;SDS011;21053;50.848;4.652;2024-02-15T07:19:01;70.57;;;64.43;;
34836;SDS011;21053;50.848;4.652;2024-02-15T07:22:47;64.25;;;59.30;;
34836;SDS011;21053;50.848;4.652;2024-02-15T07:25:15;76.63;;;70.65;;
34836;SDS011;21053;50.848;4.652;2024-02-15T07:27:40;79.55;;;72.13;;
34836;SDS011;21053;50.848;4.652;2024-02-15T07:30:07;74.13;;;68.32;;
34836;SDS011;21053;50.848;4.652;2024-02-15T07:32:34;76.60;;;70.40;;
34836;SDS011;21053;50.848;4.652;2024-02-15T07:35:02;71.28;;;65.75;;
34836;SDS011;21053;50.848;4.652;2024-02-15T07:37:33;78.40;;;72.32;;
34836;SDS011;21053;50.848;4.652;2024-02-15T07:40:02;77.07;;;71.03;;
34836;SDS011;21053;50.848;4.652;2024-02-15T07:42:32;74.78;;;69.03;;
34836;SDS011;21053;50.848;4.652;2024-02-15T07:47:31;74.85;;;69.03;;
34836;SDS011;21053;50.848;4.652;2024-02-15T07:49:59;67.72;;;62.47;;
34836;SDS011;21053;50.848;4.652;2024-02-15T07:52:26;75.57;;;69.78;;
34836;SDS011;21053;50.848;4.652;2024-02-15T07:54:51;71.57;;;66.05;;
34836;SDS011;21053;50.848;4.652;2024-02-15T07:57:17;62.90;;;57.83;;
34836;SDS011;21053;50.848;4.652;2024-02-15T07:59:43;71.70;;;66.13;;
34836;SDS011;21053;50.848;4.652;2024-02-15T08:02:10;84.78;;;78.00;;
34836;SDS011;21053;50.848;4.652;2024-02-15T08:04:37;82.93;;;76.47;;
34836;SDS011;21053;50.848;4.652;2024-02-15T08:07:06;75.72;;;69.72;;
34836;SDS011;21053;50.848;4.652;2024-02-15T08:09:37;76.93;;;70.88;;
34836;SDS011;21053;50.848;4.652;2024-02-15T08:12:03;81.35;;;75.00;;
34836;SDS011;21053;50.848;4.652;2024-02-15T08:14:29;86.88;;;79.95;;
34836;SDS011;21053;50.848;4.652;2024-02-15T08:16:57;85.75;;;79.05;;
34836;SDS011;21053;50.848;4.652;2024-02-15T08:19:24;93.95;;;86.45;;
34836;SDS011;21053;50.848;4.652;2024-02-15T08:21:55;86.13;;;78.93;;
34836;SDS011;21053;50.848;4.652;2024-02-15T08:24:21;90.30;;;83.15;;
34836;SDS011;21053;50.848;4.652;2024-02-15T08:26:50;87.65;;;80.80;;
34836;SDS011;21053;50.848;4.652;2024-02-15T08:29:19;84.38;;;77.70;;
34836;SDS011;21053;50.848;4.652;2024-02-15T08:31:48;80.72;;;74.38;;
34836;SDS011;21053;50.848;4.652;2024-02-15T08:34:15;87.55;;;80.65;;
34836;SDS011;21053;50.848;4.652;2024-02-15T08:36:43;81.45;;;74.28;;
34836;SDS011;21053;50.848;4.652;2024-02-15T08:39:15;96.18;;;88.70;;
34836;SDS011;21053;50.848;4.652;2024-02-15T08:41:42;93.45;;;86.05;;
34836;SDS011;21053;50.848;4.652;2024-02-15T08:44:07;84.53;;;77.82;;
34836;SDS011;21053;50.848;4.652;2024-02-15T08:46:39;88.95;;;81.95;;
34836;SDS011;21053;50.848;4.652;2024-02-15T08:49:05;81.50;;;75.00;;
34836;SDS011;21053;50.848;4.652;2024-02-15T08:51:31;105.95;;;97.38;;
34836;SDS011;21053;50.848;4.652;2024-02-15T08:53:58;97.85;;;90.00;;
34836;SDS011;21053;50.848;4.652;2024-02-15T08:56:25;85.72;;;78.10;;
34836;SDS011;21053;50.848;4.652;2024-02-15T08:58:51;91.78;;;84.25;;
34836;SDS011;21053;50.848;4.652;2024-02-15T09:01:16;80.28;;;73.93;;
34836;SDS011;21053;50.848;4.652;2024-02-15T09:03:42;88.70;;;81.80;;
34836;SDS011;21053;50.848;4.652;2024-02-15T09:06:10;90.72;;;83.30;;
34836;SDS011;21053;50.848;4.652;2024-02-15T09:08:37;94.60;;;87.20;;
34836;SDS011;21053;50.848;4.652;2024-02-15T09:11:03;112.03;;;103.20;;
34836;SDS011;21053;50.848;4.652;2024-02-15T09:13:29;109.55;;;101.05;;
34836;SDS011;21053;50.848;4.652;2024-02-15T09:15:57;112.97;;;104.03;;
34836;SDS011;21053;50.848;4.652;2024-02-15T09:18:23;111.07;;;102.35;;
34836;SDS011;21053;50.848;4.652;2024-02-15T09:20:49;138.02;;;127.20;;
34836;SDS011;21053;50.848;4.652;2024-02-15T09:23:21;132.55;;;121.90;;
34836;SDS011;21053;50.848;4.652;2024-02-15T09:25:48;153.60;;;141.48;;
34836;SDS011;21053;50.848;4.652;2024-02-15T09:28:18;188.15;;;173.27;;
34836;SDS011;21053;50.848;4.652;2024-02-15T09:30:52;172.07;;;158.40;;
34836;SDS011;21053;50.848;4.652;2024-02-15T09:33:21;181.85;;;166.98;;
34836;SDS011;21053;50.848;4.652;2024-02-15T09:35:49;203.68;;;187.52;;
34836;SDS011;21053;50.848;4.652;2024-02-15T09:38:16;194.85;;;179.15;;
34836;SDS011;21053;50.848;4.652;2024-02-15T09:40:45;213.23;;;195.88;;
34836;SDS011;21053;50.848;4.652;2024-02-15T09:43:14;232.48;;;213.85;;
34836;SDS011;21053;50.848;4.652;2024-02-15T09:45:41;224.35;;;206.52;;
34836;SDS011;21053;50.848;4.652;2024-02-15T09:48:10;251.55;;;231.60;;
34836;SDS011;21053;50.848;4.652;2024-02-15T09:50:39;244.23;;;225.25;;
34836;SDS011;21053;50.848;4.652;2024-02-15T09:53:08;231.93;;;213.35;;
34836;SDS011;21053;50.848;4.652;2024-02-15T09:55:35;228.02;;;210.27;;
34836;SDS011;21053;50.848;4.652;2024-02-15T09:58:01;229.00;;;210.95;;
34836;SDS011;21053;50.848;4.652;2024-02-15T10:00:30;214.52;;;195.60;;
34836;SDS011;21053;50.848;4.652;2024-02-15T10:02:57;187.75;;;172.88;;
34836;SDS011;21053;50.848;4.652;2024-02-15T10:05:27;205.10;;;188.75;;
34836;SDS011;21053;50.848;4.652;2024-02-15T10:07:53;201.00;;;185.15;;
34836;SDS011;21053;50.848;4.652;2024-02-15T10:10:19;193.82;;;177.63;;
34836;SDS011;21053;50.848;4.652;2024-02-15T10:12:48;167.25;;;154.13;;
34836;SDS011;21053;50.848;4.652;2024-02-15T10:18:11;139.52;;;128.20;;
34836;SDS011;21053;50.848;4.652;2024-02-15T10:20:37;155.35;;;142.75;;
34836;SDS011;21053;50.848;4.652;2024-02-15T10:25:38;150.80;;;138.20;;
34836;SDS011;21053;50.848;4.652;2024-02-15T10:28:12;150.57;;;138.25;;
34836;SDS011;21053;50.848;4.652;2024-02-15T10:33:31;168.57;;;154.70;;
34836;SDS011;21053;50.848;4.652;2024-02-15T10:36:09;152.43;;;139.90;;
34836;SDS011;21053;50.848;4.652;2024-02-15T10:38:39;158.18;;;144.82;;
34836;SDS011;21053;50.848;4.652;2024-02-15T10:41:06;159.80;;;146.48;;
34836;SDS011;21053;50.848;4.652;2024-02-15T10:43:34;163.82;;;150.45;;
34836;SDS011;21053;50.848;4.652;2024-02-15T10:46:04;178.65;;;164.02;;
34836;SDS011;21053;50.848;4.652;2024-02-15T10:48:35;176.68;;;161.55;;
34836;SDS011;21053;50.848;4.652;2024-02-15T10:53:35;133.35;;;121.00;;
34836;SDS011;21053;50.848;4.652;2024-02-15T10:58:50;194.40;;;175.70;;
34836;SDS011;21053;50.848;4.652;2024-02-15T11:01:27;156.90;;;143.20;;
34836;SDS011;21053;50.848;4.652;2024-02-15T11:03:59;168.65;;;154.15;;
34836;SDS011;21053;50.848;4.652;2024-02-15T11:06:31;206.65;;;189.32;;
34836;SDS011;21053;50.848;4.652;2024-02-15T11:09:04;109.93;;;101.20;;
34836;SDS011;21053;50.848;4.652;2024-02-15T11:11:33;79.00;;;72.57;;
34836;SDS011;21053;50.848;4.652;2024-02-15T11:16:55;123.25;;;112.85;;
34836;SDS011;21053;50.848;4.652;2024-02-15T11:24:37;123.38;;;112.97;;
34836;SDS011;21053;50.848;4.652;2024-02-15T11:27:27;116.53;;;106.78;;
34836;SDS011;21053;50.848;4.652;2024-02-15T11:29:58;121.90;;;111.65;;
34836;SDS011;21053;50.848;4.652;2024-02-15T11:35:20;146.48;;;134.38;;
34836;SDS011;21053;50.848;4.652;2024-02-15T11:37:53;146.20;;;134.35;;
34836;SDS011;21053;50.848;4.652;2024-02-15T11:43:09;172.02;;;157.63;;
34836;SDS011;21053;50.848;4.652;2024-02-15T11:45:36;200.43;;;183.48;;
34836;SDS011;21053;50.848;4.652;2024-02-15T11:48:09;222.23;;;203.65;;
34836;SDS011;21053;50.848;4.652;2024-02-15T11:50:36;195.52;;;178.98;;
34836;SDS011;21053;50.848;4.652;2024-02-15T11:53:06;215.45;;;195.30;;
34836;SDS011;21053;50.848;4.652;2024-02-15T11:55:38;151.68;;;138.95;;
34836;SDS011;21053;50.848;4.652;2024-02-15T11:58:08;185.88;;;170.38;;
34836;SDS011;21053;50.848;4.652;2024-02-15T12:00:34;164.98;;;151.15;;
34836;SDS011;21053;50.848;4.652;2024-02-15T12:03:22;164.13;;;150.07;;
34836;SDS011;21053;50.848;4.652;2024-02-15T12:06:10;149.80;;;137.60;;
34836;SDS011;21053;50.848;4.652;2024-02-15T12:08:55;137.40;;;125.95;;
34836;SDS011;21053;50.848;4.652;2024-02-15T12:11:40;105.70;;;96.70;;
34836;SDS011;21053;50.848;4.652;2024-02-15T12:14:24;125.80;;;115.22;;
34836;SDS011;21053;50.848;4.652;2024-02-15T12:17:10;142.90;;;129.18;;
34836;SDS011;21053;50.848;4.652;2024-02-15T12:20:08;123.78;;;113.40;;
34836;SDS011;21053;50.848;4.652;2024-02-15T12:25:13;185.15;;;169.93;;
34836;SDS011;21053;50.848;4.652;2024-02-15T12:27:42;206.65;;;189.57;;
34836;SDS011;21053;50.848;4.652;2024-02-15T12:30:18;198.30;;;181.82;;
34836;SDS011;21053;50.848;4.652;2024-02-15T12:32:50;215.93;;;198.48;;
34836;SDS011;21053;50.848;4.652;2024-02-15T12:35:19;191.60;;;175.98;;
34836;SDS011;21053;50.848;4.652;2024-02-15T12:37:46;178.32;;;163.43;;
34836;SDS011;21053;50.848;4.652;2024-02-15T12:40:13;231.90;;;212.98;;
34836;SDS011;21053;50.848;4.652;2024-02-15T12:42:43;228.57;;;209.80;;
34836;SDS011;21053;50.848;4.652;2024-02-15T12:45:20;223.70;;;204.93;;
34836;SDS011;21053;50.848;4.652;2024-02-15T12:47:48;187.05;;;171.30;;
34836;SDS011;21053;50.848;4.652;2024-02-15T12:50:16;192.55;;;176.57;;
34836;SDS011;21053;50.848;4.652;2024-02-15T12:52:46;192.02;;;176.27;;
34836;SDS011;21053;50.848;4.652;2024-02-15T12:55:22;210.27;;;193.05;;
34836;SDS011;21053;50.848;4.652;2024-02-15T12:57:53;233.65;;;214.40;;
34836;SDS011;21053;50.848;4.652;2024-02-15T13:00:23;330.80;;;281.50;;
34836;SDS011;21053;50.848;4.652;2024-02-15T13:03:02;242.55;;;222.60;;
34836;SDS011;21053;50.848;4.652;2024-02-15T13:05:29;233.27;;;214.05;;
34836;SDS011;21053;50.848;4.652;2024-02-15T13:07:56;228.23;;;209.82;;
34836;SDS011;21053;50.848;4.652;2024-02-15T13:10:31;246.55;;;226.88;;
34836;SDS011;21053;50.848;4.652;2024-02-15T13:12:57;247.52;;;227.60;;
34836;SDS011;21053;50.848;4.652;2024-02-15T13:15:25;212.68;;;195.32;;
34836;SDS011;21053;50.848;4.652;2024-02-15T13:17:57;244.05;;;224.35;;
34836;SDS011;21053;50.848;4.652;2024-02-15T13:20:24;220.30;;;202.55;;
34836;SDS011;21053;50.848;4.652;2024-02-15T13:23:01;214.35;;;197.13;;
34836;SDS011;21053;50.848;4.652;2024-02-15T13:25:33;229.27;;;210.85;;
34836;SDS011;21053;50.848;4.652;2024-02-15T13:28:03;196.65;;;180.98;;
34836;SDS011;21053;50.848;4.652;2024-02-15T13:30:29;187.77;;;172.77;;
34836;SDS011;21053;50.848;4.652;2024-02-15T13:32:55;209.52;;;192.70;;
34836;SDS011;21053;50.848;4.652;2024-02-15T13:35:23;205.80;;;189.30;;
34836;SDS011;21053;50.848;4.652;2024-02-15T13:37:49;218.10;;;200.55;;
34836;SDS011;21053;50.848;4.652;2024-02-15T13:40:19;184.20;;;169.60;;
34836;SDS011;21053;50.848;4.652;2024-02-15T13:42:54;211.77;;;194.75;;
34836;SDS011;21053;50.848;4.652;2024-02-15T13:45:26;208.45;;;192.23;;
34836;SDS011;21053;50.848;4.652;2024-02-15T13:48:02;181.00;;;167.02;;
34836;SDS011;21053;50.848;4.652;2024-02-15T13:50:30;203.63;;;188.02;;
34836;SDS011;21053;50.848;4.652;2024-02-15T13:52:56;174.35;;;160.95;;
34836;SDS011;21053;50.848;4.652;2024-02-15T13:55:23;188.65;;;174.00;;
34836;SDS011;21053;50.848;4.652;2024-02-15T13:57:52;202.60;;;186.63;;
34836;SDS011;21053;50.848;4.652;2024-02-15T14:00:19;160.23;;;147.65;;
34836;SDS011;21053;50.848;4.652;2024-02-15T14:05:14;192.07;;;177.35;;
34836;SDS011;21053;50.848;4.652;2024-02-15T14:07:43;151.70;;;140.00;;
34836;SDS011;21053;50.848;4.652;2024-02-15T14:10:10;197.00;;;181.25;;
34836;SDS011;21053;50.848;4.652;2024-02-15T14:12:37;202.55;;;186.55;;
34836;SDS011;21053;50.848;4.652;2024-02-15T14:15:06;188.55;;;174.02;;
34836;SDS011;21053;50.848;4.652;2024-02-15T14:17:32;215.98;;;199.13;;
34836;SDS011;21053;50.848;4.652;2024-02-15T14:19:57;216.00;;;199.13;;
34836;SDS011;21053;50.848;4.652;2024-02-15T14:22:23;194.00;;;178.88;;
34836;SDS011;21053;50.848;4.652;2024-02-15T14:24:53;229.75;;;211.55;;
34836;SDS011;21053;50.848;4.652;2024-02-15T14:27:19;242.75;;;223.10;;
34836;SDS011;21053;50.848;4.652;2024-02-15T14:29:45;224.13;;;206.38;;
34836;SDS011;21053;50.848;4.652;2024-02-15T14:32:31;218.10;;;201.10;;
34836;SDS011;21053;50.848;4.652;2024-02-15T14:35:15;237.30;;;218.73;;
34836;SDS011;21053;50.848;4.652;2024-02-15T14:37:42;249.43;;;230.13;;
34836;SDS011;21053;50.848;4.652;2024-02-15T14:40:09;184.52;;;170.38;;
34836;SDS011;21053;50.848;4.652;2024-02-15T14:42:39;204.95;;;188.93;;
34836;SDS011;21053;50.848;4.652;2024-02-15T14:45:07;233.00;;;214.85;;
34836;SDS011;21053;50.848;4.652;2024-02-15T14:47:36;233.07;;;212.18;;
34836;SDS011;21053;50.848;4.652;2024-02-15T14:50:04;236.32;;;217.75;;
34836;SDS011;21053;50.848;4.652;2024-02-15T14:52:36;238.95;;;220.05;;
34836;SDS011;21053;50.848;4.652;2024-02-15T14:55:05;233.65;;;214.23;;
34836;SDS011;21053;50.848;4.652;2024-02-15T14:57:34;243.88;;;224.50;;
34836;SDS011;21053;50.848;4.652;2024-02-15T15:00:02;273.10;;;251.32;;
34836;SDS011;21053;50.848;4.652;2024-02-15T15:02:39;236.63;;;217.52;;
34836;SDS011;21053;50.848;4.652;2024-02-15T15:05:08;284.27;;;261.90;;
34836;SDS011;21053;50.848;4.652;2024-02-15T15:07:53;267.42;;;246.32;;
34836;SDS011;21053;50.848;4.652;2024-02-15T15:10:38;253.50;;;233.60;;
34836;SDS011;21053;50.848;4.652;2024-02-15T15:13:24;247.35;;;228.02;;
34836;SDS011;21053;50.848;4.652;2024-02-15T15:15:51;232.75;;;214.68;;
34836;SDS011;21053;50.848;4.652;2024-02-15T15:18:19;263.35;;;242.57;;
34836;SDS011;21053;50.848;4.652;2024-02-15T15:20:45;247.18;;;227.70;;
34836;SDS011;21053;50.848;4.652;2024-02-15T15:23:11;253.40;;;233.25;;
34836;SDS011;21053;50.848;4.652;2024-02-15T15:25:39;269.50;;;248.18;;
34836;SDS011;21053;50.848;4.652;2024-02-15T15:28:05;298.40;;;274.45;;
34836;SDS011;21053;50.848;4.652;2024-02-15T15:30:32;248.93;;;228.93;;